createdAt,value
2022-11-01T00:04:00.727Z,15.32
2022-11-01T00:08:02.368Z,15.01
2022-11-01T00:12:04.314Z,15.14
2022-11-01T00:16:06.370Z,15.21
2022-11-01T00:20:08.272Z,15.16
2022-11-01T00:24:09.812Z,15.16
2022-11-01T00:28:11.258Z,15.23
2022-11-01T00:32:12.677Z,15.15
2022-11-01T00:36:14.425Z,15.44
2022-11-01T00:40:16.111Z,15.41
2022-11-01T00:44:17.540Z,15.38
2022-11-01T00:48:18.940Z,15.34
2022-11-01T00:52:20.405Z,15.31
2022-11-01T00:56:21.799Z,15.14
2022-11-01T01:00:23.580Z,15.14
2022-11-01T01:04:25.011Z,15.44
2022-11-01T01:08:27.075Z,15.36
2022-11-01T01:12:28.498Z,15.42
2022-11-01T01:16:30.002Z,15.44
2022-11-01T01:20:31.605Z,15.52
2022-11-01T01:24:34.184Z,15.72
2022-11-01T01:28:41.689Z,15.54
2022-11-01T01:32:46.234Z,15.50
2022-11-01T01:36:48.057Z,15.52
2022-11-01T01:40:49.598Z,15.55
2022-11-01T01:44:57.103Z,15.18
2022-11-01T01:48:59.827Z,15.50
2022-11-01T01:53:20.762Z,15.65
2022-11-01T01:57:22.490Z,15.14
2022-11-01T02:01:24.627Z,15.32
2022-11-01T02:05:40.832Z,15.54
2022-11-01T02:09:43.349Z,15.41
2022-11-01T02:13:44.777Z,15.37
2022-11-01T02:17:57.616Z,15.53
2022-11-01T02:22:05.690Z,15.56
2022-11-01T02:26:26.617Z,15.49
2022-11-01T02:30:45.467Z,15.52
2022-11-01T02:35:05.731Z,15.37
2022-11-01T02:39:20.083Z,15.25
2022-11-01T02:43:35.622Z,14.94
2022-11-01T02:47:38.477Z,15.20
2022-11-01T02:51:41.988Z,15.29
2022-11-01T02:59:46.971Z,15.18
2022-11-01T03:03:51.651Z,15.11
2022-11-01T03:08:00.585Z,15.20
2022-11-01T03:12:06.193Z,15.16
2022-11-01T03:16:18.962Z,15.21
2022-11-01T03:20:48.692Z,14.98
2022-11-01T03:25:31.740Z,14.99
2022-11-01T03:29:36.399Z,15.10
2022-11-01T03:33:43.989Z,15.01
2022-11-01T03:37:48.482Z,15.13
2022-11-01T03:41:55.238Z,15.31
2022-11-01T03:45:56.951Z,15.36
2022-11-01T03:50:18.273Z,15.24
2022-11-01T03:54:19.717Z,15.08
2022-11-01T03:58:21.365Z,15.36
2022-11-01T04:02:22.737Z,15.44
2022-11-01T04:06:24.133Z,14.97
2022-11-01T04:10:28.990Z,14.90
2022-11-01T04:14:49.133Z,15.07
2022-11-01T04:19:09.428Z,15.29
2022-11-01T04:23:10.979Z,15.03
2022-11-01T04:27:12.366Z,15.25
2022-11-01T04:31:13.767Z,15.33
2022-11-01T04:35:15.677Z,15.39
2022-11-01T04:39:17.066Z,15.25
2022-11-01T04:43:18.432Z,15.27
2022-11-01T04:47:19.848Z,15.06
2022-11-01T04:51:21.322Z,15.40
2022-11-01T04:55:22.774Z,15.43
2022-11-01T04:59:24.226Z,15.37
2022-11-01T05:03:25.664Z,15.48
2022-11-01T05:07:28.302Z,15.59
2022-11-01T05:11:29.727Z,15.18
2022-11-01T05:15:31.585Z,15.49
2022-11-01T05:19:33.023Z,15.32
2022-11-01T05:23:34.461Z,15.40
2022-11-01T05:27:37.396Z,15.27
2022-11-01T05:31:38.784Z,15.50
2022-11-01T05:35:40.238Z,15.53
2022-11-01T05:39:41.825Z,15.35
2022-11-01T05:43:43.273Z,15.44
2022-11-01T05:47:44.751Z,15.34
2022-11-01T05:51:46.154Z,15.43
2022-11-01T05:55:47.585Z,15.18
2022-11-01T05:59:49.041Z,15.45
2022-11-01T06:03:50.652Z,15.34
2022-11-01T06:07:52.055Z,15.48
2022-11-01T06:11:53.464Z,15.49
2022-11-01T06:16:02.841Z,15.47
2022-11-01T06:20:05.885Z,15.41
2022-11-01T06:24:07.527Z,15.53
2022-11-01T06:28:08.966Z,15.52
2022-11-01T06:32:10.438Z,15.44
2022-11-01T06:36:11.838Z,15.34
2022-11-01T06:40:13.283Z,15.45
2022-11-01T06:44:14.683Z,15.74
2022-11-01T06:48:16.194Z,15.41
2022-11-01T06:52:17.674Z,15.40
2022-11-01T06:56:19.121Z,15.58
2022-11-01T07:00:20.681Z,15.65
2022-11-01T07:04:22.281Z,15.60
2022-11-01T07:08:23.676Z,15.78
2022-11-01T07:12:25.102Z,15.55
2022-11-01T07:16:26.909Z,15.61
2022-11-01T07:20:30.630Z,15.64
2022-11-01T07:24:32.107Z,15.70
2022-11-01T07:28:33.616Z,15.77
2022-11-01T07:32:39.733Z,15.65
2022-11-01T07:36:41.423Z,15.57
2022-11-01T07:40:44.448Z,15.95
2022-11-01T07:44:45.983Z,15.83
2022-11-01T07:48:47.406Z,15.68
2022-11-01T07:52:48.898Z,16.03
2022-11-01T07:56:50.314Z,16.14
2022-11-01T08:00:51.745Z,16.31
2022-11-01T08:04:54.463Z,16.40
2022-11-01T08:08:55.882Z,16.25
2022-11-01T08:13:21.622Z,16.34
2022-11-01T08:17:23.032Z,16.51
2022-11-01T08:21:24.434Z,16.33
2022-11-01T08:25:25.907Z,16.37
2022-11-01T08:29:27.314Z,16.62
2022-11-01T08:33:28.704Z,16.63
2022-11-01T08:37:30.135Z,16.75
2022-11-01T08:41:34.315Z,16.47
2022-11-01T08:45:38.222Z,16.69
2022-11-01T08:49:39.722Z,16.85
2022-11-01T08:53:41.234Z,16.92
2022-11-01T08:57:42.655Z,16.57
2022-11-01T09:01:44.278Z,16.77
2022-11-01T09:05:45.864Z,16.96
2022-11-01T09:09:47.334Z,17.08
2022-11-01T09:13:49.475Z,16.79
2022-11-01T09:17:51.190Z,16.67
2022-11-01T09:21:52.603Z,16.75
2022-11-01T09:25:54.086Z,16.96
2022-11-01T09:29:55.493Z,16.88
2022-11-01T09:33:57.792Z,17.05
2022-11-01T09:38:00.494Z,17.25
2022-11-01T09:42:06.869Z,17.04
2022-11-01T09:46:16.697Z,17.11
2022-11-01T09:50:27.256Z,17.09
2022-11-01T09:54:28.890Z,16.95
2022-11-01T09:59:02.156Z,17.24
2022-11-01T10:03:34.758Z,17.35
2022-11-01T10:07:45.259Z,17.38
2022-11-01T10:11:59.160Z,17.64
2022-11-01T10:16:10.850Z,17.60
2022-11-01T10:20:14.518Z,17.60
2022-11-01T10:24:32.107Z,17.72
2022-11-01T10:28:46.402Z,17.97
2022-11-01T10:33:02.518Z,17.86
2022-11-01T10:37:21.932Z,17.73
2022-11-01T10:41:29.116Z,17.87
2022-11-01T10:45:30.859Z,17.89
2022-11-01T10:54:09.159Z,18.30
2022-11-01T11:02:48.302Z,18.38
2022-11-01T11:07:05.359Z,18.24
2022-11-01T11:11:14.057Z,18.66
2022-11-01T11:15:41.597Z,18.64
2022-11-01T11:19:49.504Z,18.54
2022-11-01T11:23:56.435Z,18.21
2022-11-01T11:28:26.602Z,18.40
2022-11-01T11:32:35.064Z,18.54
2022-11-01T11:36:43.633Z,18.74
2022-11-01T11:40:45.717Z,18.68
2022-11-01T11:44:56.638Z,18.61
2022-11-01T11:49:04.205Z,18.67
2022-11-01T11:53:22.807Z,18.56
2022-11-01T11:57:27.074Z,19.03
2022-11-01T12:01:29.629Z,19.22
2022-11-01T12:05:31.247Z,19.06
2022-11-01T12:09:46.634Z,18.87
2022-11-01T12:14:02.888Z,18.76
2022-11-01T12:18:16.111Z,18.94
2022-11-01T12:22:18.517Z,18.91
2022-11-01T12:26:22.645Z,18.91
2022-11-01T12:30:29.831Z,18.83
2022-11-01T12:34:42.381Z,19.11
2022-11-01T12:39:01.295Z,18.96
2022-11-01T12:43:35.691Z,19.08
2022-11-01T12:47:45.381Z,18.93
2022-11-01T12:51:50.235Z,18.90
2022-11-01T12:55:53.262Z,19.01
2022-11-01T12:59:54.697Z,19.00
2022-11-01T13:04:37.925Z,19.07
2022-11-01T13:09:05.192Z,19.44
2022-11-01T13:13:45.724Z,20.11
2022-11-01T13:17:59.163Z,20.29
2022-11-01T13:22:27.975Z,20.13
2022-11-01T13:26:36.910Z,20.04
2022-11-01T13:30:43.736Z,19.92
2022-11-01T13:35:16.977Z,19.51
2022-11-01T13:39:30.718Z,19.08
2022-11-01T13:43:43.606Z,19.06
2022-11-01T13:47:57.327Z,19.37
2022-11-01T13:52:13.847Z,19.24
2022-11-01T13:56:20.368Z,19.15
2022-11-01T14:00:41.346Z,19.25
2022-11-01T14:04:54.171Z,19.03
2022-11-01T14:09:28.197Z,19.12
2022-11-01T14:13:41.350Z,19.28
2022-11-01T14:18:03.360Z,19.36
2022-11-01T14:22:27.230Z,19.24
2022-11-01T14:26:45.333Z,18.90
2022-11-01T14:30:51.099Z,18.89
2022-11-01T14:34:59.985Z,18.96
2022-11-01T14:39:18.063Z,18.81
2022-11-01T14:43:45.727Z,18.80
2022-11-01T14:47:51.882Z,18.76
2022-11-01T14:52:05.971Z,18.39
2022-11-01T14:56:10.930Z,18.39
2022-11-01T15:00:30.592Z,18.29
2022-11-01T15:04:44.127Z,18.12
2022-11-01T15:08:47.248Z,17.93
2022-11-01T15:12:57.584Z,17.95
2022-11-01T15:16:59.182Z,17.83
2022-11-01T15:21:02.606Z,17.70
2022-11-01T15:25:07.494Z,17.33
2022-11-01T15:29:16.397Z,17.16
2022-11-01T15:33:25.869Z,17.14
2022-11-01T15:37:32.366Z,16.99
2022-11-01T15:41:34.935Z,16.97
2022-11-01T15:45:38.525Z,16.84
2022-11-01T15:50:04.988Z,16.88
2022-11-01T15:54:32.028Z,16.57
2022-11-01T15:58:44.102Z,16.48
2022-11-01T16:03:04.435Z,16.41
2022-11-01T16:07:13.005Z,16.05
2022-11-01T16:11:20.878Z,16.07
2022-11-01T16:15:29.844Z,15.96
2022-11-01T16:19:51.530Z,15.72
2022-11-01T16:24:15.661Z,15.66
2022-11-01T16:28:17.155Z,15.44
2022-11-01T16:32:23.270Z,15.28
2022-11-01T16:36:36.390Z,15.11
2022-11-01T16:40:39.198Z,15.09
2022-11-01T16:44:40.893Z,14.98
2022-11-01T16:48:56.266Z,14.91
2022-11-01T16:52:57.683Z,14.77
2022-11-01T16:56:59.502Z,14.63
2022-11-01T17:01:01.181Z,14.44
2022-11-01T17:05:18.685Z,14.36
2022-11-01T17:09:22.628Z,14.36
2022-11-01T17:13:24.580Z,14.36
2022-11-01T17:17:27.355Z,14.34
2022-11-01T17:21:32.416Z,14.27
2022-11-01T17:25:34.664Z,14.18
2022-11-01T17:29:36.775Z,14.30
2022-11-01T17:33:38.307Z,14.27
2022-11-01T17:37:39.963Z,13.81
2022-11-01T17:41:41.405Z,14.03
2022-11-01T17:45:46.385Z,14.07
2022-11-01T17:49:47.809Z,14.01
2022-11-01T17:53:54.103Z,13.94
2022-11-01T17:57:55.818Z,13.83
2022-11-01T18:01:57.359Z,13.65
2022-11-01T18:05:59.346Z,13.56
2022-11-01T18:10:00.822Z,13.48
2022-11-01T18:14:38.106Z,13.35
2022-11-01T18:19:02.367Z,13.26
2022-11-01T18:23:08.379Z,13.25
2022-11-01T18:27:11.627Z,13.11
2022-11-01T18:31:23.400Z,13.19
2022-11-01T18:35:32.105Z,13.22
2022-11-01T18:39:46.027Z,13.19
2022-11-01T18:43:51.819Z,12.81
2022-11-01T18:48:11.752Z,12.89
2022-11-01T18:52:17.725Z,12.90
2022-11-01T18:56:25.630Z,12.77
2022-11-01T19:00:27.413Z,12.93
2022-11-01T19:04:31.133Z,12.69
2022-11-01T19:08:35.051Z,12.85
2022-11-01T19:12:40.456Z,12.75
2022-11-01T19:16:42.332Z,12.80
2022-11-01T19:20:49.884Z,12.59
2022-11-01T19:24:51.293Z,12.73
2022-11-01T19:28:52.967Z,12.74
2022-11-01T19:32:59.148Z,12.93
2022-11-01T19:37:06.200Z,12.91
2022-11-01T19:41:10.822Z,12.92
2022-11-01T19:45:12.180Z,12.91
2022-11-01T19:49:25.689Z,12.64
2022-11-01T19:53:37.743Z,12.62
2022-11-01T19:57:42.337Z,12.84
2022-11-01T20:01:46.761Z,12.61
2022-11-01T20:05:48.281Z,12.73
2022-11-01T20:09:51.077Z,12.86
2022-11-01T20:13:55.027Z,12.67
2022-11-01T20:17:56.453Z,12.96
2022-11-01T20:21:58.816Z,12.57
2022-11-01T20:26:01.026Z,12.85
2022-11-01T20:30:02.504Z,12.99
2022-11-01T20:34:04.216Z,12.76
2022-11-01T20:38:05.728Z,13.11
2022-11-01T20:42:07.994Z,12.96
2022-11-01T20:46:09.502Z,13.04
2022-11-01T20:50:12.959Z,12.83
2022-11-01T20:54:17.848Z,12.72
2022-11-01T20:58:19.883Z,12.71
2022-11-01T21:02:21.955Z,12.72
2022-11-01T21:06:27.903Z,12.99
2022-11-01T21:10:35.008Z,13.00
2022-11-01T21:14:37.059Z,12.42
2022-11-01T21:18:43.491Z,12.66
2022-11-01T21:22:44.905Z,12.81
2022-11-01T21:26:52.013Z,12.74
2022-11-01T21:31:19.359Z,12.73
2022-11-01T21:35:20.742Z,12.51
2022-11-01T21:39:25.315Z,12.60
2022-11-01T21:43:33.126Z,12.48
2022-11-01T21:47:34.528Z,12.38
2022-11-01T21:51:35.933Z,12.33
2022-11-01T21:55:37.372Z,12.28
2022-11-01T21:59:39.545Z,12.21
2022-11-01T22:03:40.942Z,12.14
2022-11-01T22:07:42.358Z,12.12
2022-11-01T22:11:44.070Z,12.36
2022-11-01T22:15:45.843Z,12.30
2022-11-01T22:19:47.314Z,12.03
2022-11-01T22:23:48.746Z,12.11
2022-11-01T22:27:50.140Z,12.20
2022-11-01T22:31:51.589Z,12.19
2022-11-01T22:35:53.252Z,11.98
2022-11-01T22:39:55.362Z,11.98
2022-11-01T22:43:59.295Z,12.13
2022-11-01T22:48:00.835Z,11.93
2022-11-01T22:52:29.558Z,11.79
2022-11-01T22:56:30.969Z,11.62
2022-11-01T23:00:39.765Z,11.81
2022-11-01T23:04:41.175Z,11.40
2022-11-01T23:08:42.562Z,11.65
2022-11-01T23:13:03.417Z,11.70
2022-11-01T23:17:19.825Z,11.72
2022-11-01T23:21:22.156Z,11.70
2022-11-01T23:25:25.584Z,11.73
2022-11-01T23:29:26.964Z,11.70
2022-11-01T23:33:35.949Z,11.72
2022-11-01T23:37:37.531Z,11.74
2022-11-01T23:41:46.960Z,11.71
2022-11-01T23:45:49.023Z,11.67
2022-11-01T23:49:58.020Z,11.77
2022-11-01T23:53:59.824Z,11.94
2022-11-01T23:58:03.034Z,11.86
